createdAt,value
2019-03-01T00:02:46.517Z,9.5
2019-03-01T00:07:46.708Z,9.5
2019-03-01T00:12:27.943Z,9.5
2019-03-01T00:17:28.567Z,9.6
2019-03-01T00:22:29.515Z,9.5
2019-03-01T00:27:27.866Z,9.5
2019-03-01T00:32:27.558Z,9.5
2019-03-01T00:37:27.809Z,9.5
2019-03-01T00:42:28.122Z,9.6
2019-03-01T00:47:27.519Z,9.6
2019-03-01T00:52:27.320Z,9.6
2019-03-01T00:57:26.968Z,9.6
2019-03-01T01:02:27.422Z,9.7
2019-03-01T01:07:28.209Z,9.8
2019-03-01T01:12:28.421Z,9.9
2019-03-01T01:17:28.280Z,9.9
2019-03-01T01:22:27.428Z,10.0
2019-03-01T01:27:27.736Z,10.1
2019-03-01T01:32:27.485Z,10.1
2019-03-01T01:37:27.451Z,10.0
2019-03-01T01:42:27.262Z,9.9
2019-03-01T01:47:27.784Z,9.9
2019-03-01T01:52:27.874Z,9.9
2019-03-01T01:57:27.776Z,9.9
2019-03-01T02:02:27.931Z,9.8
2019-03-01T02:07:27.472Z,9.5
2019-03-01T02:12:27.325Z,9.4
2019-03-01T02:17:27.642Z,9.4
2019-03-01T02:22:28.588Z,9.4
2019-03-01T02:27:27.230Z,9.3
2019-03-01T02:32:27.771Z,9.3
2019-03-01T02:37:28.504Z,9.3
2019-03-01T02:42:27.723Z,9.3
2019-03-01T02:47:27.347Z,9.3
2019-03-01T02:52:28.227Z,9.2
2019-03-01T02:57:27.425Z,9.1
2019-03-01T03:02:28.103Z,9.0
2019-03-01T03:07:29.540Z,9.0
2019-03-01T03:12:27.400Z,9.0
2019-03-01T03:17:27.714Z,8.9
2019-03-01T03:22:27.704Z,8.9
2019-03-01T03:27:27.790Z,8.9
2019-03-01T03:32:27.386Z,8.9
2019-03-01T03:37:27.741Z,8.9
2019-03-01T03:42:28.244Z,8.8
2019-03-01T03:47:28.988Z,8.9
2019-03-01T03:52:27.604Z,8.8
2019-03-01T03:57:27.490Z,8.9
2019-03-01T04:02:27.781Z,8.8
2019-03-01T04:07:27.869Z,9.1
2019-03-01T04:12:27.671Z,9.0
2019-03-01T04:17:28.668Z,9.1
2019-03-01T04:22:28.401Z,9.3
2019-03-01T04:27:27.488Z,9.3
2019-03-01T04:32:28.180Z,9.3
2019-03-01T04:37:27.479Z,9.2
2019-03-01T04:42:27.951Z,9.2
2019-03-01T04:47:28.641Z,9.1
2019-03-01T04:52:28.206Z,9.1
2019-03-01T04:57:28.082Z,9.0
2019-03-01T05:02:27.692Z,8.9
2019-03-01T05:07:27.866Z,8.8
2019-03-01T05:12:27.976Z,8.8
2019-03-01T05:17:27.573Z,8.9
2019-03-01T05:22:28.027Z,8.9
2019-03-01T05:27:28.277Z,8.8
2019-03-01T05:32:27.981Z,8.8
2019-03-01T05:37:28.305Z,8.8
2019-03-01T05:42:28.189Z,8.8
2019-03-01T05:47:27.761Z,8.8
2019-03-01T05:52:28.097Z,9.0
2019-03-01T05:57:27.973Z,9.1
2019-03-01T06:02:27.766Z,9.1
2019-03-01T06:07:27.956Z,9.2
2019-03-01T06:12:28.683Z,9.2
2019-03-01T06:17:28.729Z,9.3
2019-03-01T06:22:29.200Z,9.3
2019-03-01T06:27:27.829Z,9.4
2019-03-01T06:32:28.600Z,9.3
2019-03-01T06:37:28.113Z,9.2
2019-03-01T06:42:28.527Z,9.2
2019-03-01T06:47:28.112Z,9.1
2019-03-01T06:52:27.844Z,9.0
2019-03-01T06:57:27.811Z,9.0
2019-03-01T07:02:27.681Z,8.7
2019-03-01T07:07:28.715Z,8.7
2019-03-01T07:12:27.984Z,8.7
2019-03-01T07:17:28.946Z,8.6
2019-03-01T07:22:28.460Z,8.5
2019-03-01T07:27:27.951Z,8.4
2019-03-01T07:32:28.163Z,8.4
2019-03-01T07:37:28.750Z,8.3
2019-03-01T07:42:28.277Z,8.4
2019-03-01T07:47:29.120Z,8.4
2019-03-01T07:52:27.879Z,8.4
2019-03-01T07:57:27.782Z,8.4
2019-03-01T08:02:27.996Z,8.5
2019-03-01T08:07:28.506Z,8.6
2019-03-01T08:12:30.762Z,8.7
2019-03-01T08:17:31.494Z,8.8
2019-03-01T08:22:28.645Z,9.0
2019-03-01T08:27:28.996Z,9.2
2019-03-01T08:32:30.655Z,9.3
2019-03-01T08:37:28.207Z,9.4
2019-03-01T08:42:29.065Z,9.5
2019-03-01T08:47:28.014Z,9.7
2019-03-01T08:52:28.270Z,9.9
2019-03-01T08:57:27.795Z,9.8
2019-03-01T09:02:28.055Z,9.8
2019-03-01T09:07:30.168Z,9.8
2019-03-01T09:12:29.207Z,9.8
2019-03-01T09:17:29.158Z,9.8
2019-03-01T09:22:28.831Z,9.8
2019-03-01T09:27:30.119Z,9.8
2019-03-01T09:32:30.364Z,9.8
2019-03-01T09:37:29.607Z,9.9
2019-03-01T09:42:28.234Z,10.7
2019-03-01T09:47:27.776Z,11.1
2019-03-01T09:52:28.263Z,11.0
2019-03-01T09:57:28.422Z,11.0
2019-03-01T10:02:27.411Z,10.8
2019-03-01T10:07:28.865Z,10.4
2019-03-01T10:12:28.247Z,10.5
2019-03-01T10:17:29.089Z,10.5
2019-03-01T10:22:28.842Z,10.8
2019-03-01T10:27:27.948Z,10.8
2019-03-01T10:32:28.517Z,10.9
2019-03-01T10:37:27.965Z,10.9
2019-03-01T10:42:29.336Z,10.9
2019-03-01T10:47:28.546Z,11.0
2019-03-01T10:52:27.513Z,10.9
2019-03-01T10:57:28.435Z,10.9
2019-03-01T11:02:28.371Z,10.6
2019-03-01T11:07:28.865Z,10.6
2019-03-01T11:12:28.333Z,10.5
2019-03-01T11:17:29.265Z,10.4
2019-03-01T11:22:27.959Z,10.5
2019-03-01T11:27:28.297Z,10.5
2019-03-01T11:32:28.276Z,10.8
2019-03-01T11:37:28.542Z,11.2
2019-03-01T11:42:28.745Z,11.4
2019-03-01T11:47:28.339Z,11.5
2019-03-01T11:52:27.504Z,11.5
2019-03-01T11:57:27.845Z,11.5
2019-03-01T12:02:28.181Z,11.6
2019-03-01T12:07:28.612Z,11.6
2019-03-01T12:12:28.388Z,11.6
2019-03-01T12:17:28.867Z,11.8
2019-03-01T12:22:27.986Z,11.7
2019-03-01T12:27:28.724Z,12.1
2019-03-01T12:32:28.320Z,12.2
2019-03-01T12:37:28.453Z,12.4
2019-03-01T12:42:29.028Z,12.5
2019-03-01T12:47:29.166Z,12.5
2019-03-01T12:52:29.291Z,12.5
2019-03-01T12:57:28.220Z,12.4
2019-03-01T13:02:30.588Z,12.3
2019-03-01T13:07:27.879Z,12.1
2019-03-01T13:12:29.921Z,11.9
2019-03-01T13:17:28.915Z,11.6
2019-03-01T13:22:28.643Z,11.5
2019-03-01T13:27:28.974Z,11.2
2019-03-01T13:32:28.087Z,11.0
2019-03-01T13:37:28.304Z,10.9
2019-03-01T13:42:27.973Z,10.7
2019-03-01T13:47:29.282Z,10.5
2019-03-01T13:52:29.955Z,10.1
2019-03-01T13:57:30.006Z,10.0
2019-03-01T14:02:28.426Z,10.0
2019-03-01T14:07:28.033Z,10.7
2019-03-01T14:12:28.401Z,10.7
2019-03-01T14:17:28.866Z,11.6
2019-03-01T14:22:28.344Z,11.7
2019-03-01T14:27:29.491Z,11.8
2019-03-01T14:32:27.855Z,12.0
2019-03-01T14:37:28.203Z,12.2
2019-03-01T14:42:28.175Z,12.3
2019-03-01T14:47:29.010Z,13.0
2019-03-01T14:52:29.357Z,15.8
2019-03-01T14:57:28.563Z,15.8
2019-03-01T15:02:28.854Z,16.0
2019-03-01T15:07:30.704Z,16.2
2019-03-01T15:12:27.857Z,18.8
2019-03-01T15:17:28.618Z,21.0
2019-03-01T15:22:27.925Z,22.6
2019-03-01T15:27:28.301Z,22.3
2019-03-01T15:32:31.144Z,18.9
2019-03-01T15:37:27.434Z,15.8
2019-03-01T15:42:28.449Z,14.1
2019-03-01T15:47:28.253Z,13.2
2019-03-01T15:52:29.259Z,12.4
2019-03-01T15:57:28.218Z,11.8
2019-03-01T16:02:29.374Z,11.5
2019-03-01T16:07:28.982Z,11.3
2019-03-01T16:12:28.911Z,10.9
2019-03-01T16:17:28.438Z,10.5
2019-03-01T16:22:27.446Z,10.3
2019-03-01T16:27:28.097Z,10.2
2019-03-01T16:32:28.099Z,9.8
2019-03-01T16:37:28.632Z,9.7
2019-03-01T16:42:37.935Z,9.7
2019-03-01T16:47:28.393Z,9.7
2019-03-01T16:52:30.155Z,9.7
2019-03-01T16:57:28.868Z,9.7
2019-03-01T17:02:28.416Z,9.7
2019-03-01T17:07:28.649Z,9.7
2019-03-01T17:12:27.889Z,9.7
2019-03-01T17:17:28.569Z,9.8
2019-03-01T17:22:28.539Z,9.9
2019-03-01T17:27:27.850Z,9.8
2019-03-01T17:32:27.321Z,9.8
2019-03-01T17:37:28.584Z,9.7
2019-03-01T17:42:27.674Z,9.7
2019-03-01T17:47:27.658Z,9.7
2019-03-01T17:52:30.483Z,9.6
2019-03-01T17:57:29.120Z,9.6
2019-03-01T18:02:27.825Z,9.7
2019-03-01T18:07:28.614Z,9.7
2019-03-01T18:12:28.334Z,9.7
2019-03-01T18:17:27.789Z,9.8
2019-03-01T18:22:28.304Z,9.8
2019-03-01T18:27:27.924Z,9.4
2019-03-01T18:32:29.097Z,9.4
2019-03-01T18:37:28.685Z,9.3
2019-03-01T18:42:28.175Z,9.2
2019-03-01T18:47:30.650Z,9.0
2019-03-01T18:52:27.406Z,9.0
2019-03-01T18:57:27.821Z,9.0
2019-03-01T19:02:29.013Z,9.0
2019-03-01T19:07:28.759Z,8.9
2019-03-01T19:12:27.666Z,8.9
2019-03-01T19:17:28.151Z,8.8
2019-03-01T19:22:29.385Z,8.7
2019-03-01T19:27:28.108Z,8.7
2019-03-01T19:32:27.862Z,8.7
2019-03-01T19:37:27.894Z,8.7
2019-03-01T19:42:29.441Z,8.7
2019-03-01T19:47:29.750Z,8.7
2019-03-01T19:52:28.276Z,8.6
2019-03-01T19:57:28.467Z,8.6
2019-03-01T20:02:27.752Z,8.7
2019-03-01T20:07:28.407Z,8.7
2019-03-01T20:12:27.856Z,8.7
2019-03-01T20:17:30.266Z,8.7
2019-03-01T20:22:27.957Z,8.8
2019-03-01T20:27:27.927Z,8.7
2019-03-01T20:32:29.460Z,8.7
2019-03-01T20:37:29.278Z,8.6
2019-03-01T20:42:28.214Z,8.4
2019-03-01T20:47:28.161Z,8.4
2019-03-01T20:52:28.113Z,8.4
2019-03-01T20:57:28.301Z,8.4
2019-03-01T21:02:27.616Z,8.5
2019-03-01T21:07:27.710Z,8.5
2019-03-01T21:12:28.170Z,8.5
2019-03-01T21:17:28.195Z,8.5
2019-03-01T21:22:27.623Z,8.5
2019-03-01T21:27:27.334Z,8.5
2019-03-01T21:32:28.953Z,8.5
2019-03-01T21:37:28.371Z,8.4
2019-03-01T21:42:28.805Z,8.4
2019-03-01T21:47:28.860Z,8.4
2019-03-01T21:52:29.546Z,8.4
2019-03-01T21:57:31.071Z,8.4
2019-03-01T22:02:27.966Z,8.4
2019-03-01T22:07:27.886Z,8.3
2019-03-01T22:12:28.176Z,8.4
2019-03-01T22:17:28.215Z,8.4
2019-03-01T22:22:26.902Z,8.4
2019-03-01T22:27:27.559Z,8.4
2019-03-01T22:32:28.165Z,8.4
2019-03-01T22:37:28.535Z,8.5
2019-03-01T22:42:27.735Z,8.5
2019-03-01T22:47:27.786Z,8.5
2019-03-01T22:52:30.325Z,8.4
2019-03-01T22:57:27.884Z,8.4
2019-03-01T23:02:28.292Z,8.4
2019-03-01T23:07:28.865Z,8.4
2019-03-01T23:12:27.934Z,8.4
2019-03-01T23:22:49.521Z,8.3
2019-03-01T23:27:50.869Z,8.3
2019-03-01T23:32:48.653Z,8.2
2019-03-01T23:37:48.334Z,8.3
2019-03-01T23:42:47.571Z,8.3
2019-03-01T23:47:48.053Z,8.2
2019-03-01T23:52:48.150Z,8.3
2019-03-01T23:57:48.836Z,8.2
